Terminal Aerodrome Forecast
Issued by NWS

Home | Current Version | Previous Version | Text Only | Print | Product List | Glossary Off
Versions: 1 2 3 4 5 6 7 8 9 10 11 12 13 14 15 16 17 18 19 20

783
FTUS43 KBIS 181408 AAA
TAFDIK
TAF AMD
KDIK 181408Z 1814/1912 04012KT 1/4SM FG VV002
      TEMPO 1815/1816 1/2SM FG
     FM181600 02010KT 1SM BR OVC003
     FM181700 02011KT P6SM VCSH OVC008
     FM181900 01015G22KT P6SM VCSH OVC011
     FM190100 01013G19KT P6SM OVC010
     FM190700 02010KT P6SM SCT140=

USA.gov is the U.S. government's official web portal to all federal, state and local government web resources and services.